createdAt,value
2022-08-08T00:00:54.388Z,26.11
2022-08-08T00:03:19.993Z,26.07
2022-08-08T00:06:11.926Z,26.03
2022-08-08T00:08:49.001Z,25.96
2022-08-08T00:11:22.172Z,25.90
2022-08-08T00:14:15.251Z,25.86
2022-08-08T00:16:58.807Z,25.83
2022-08-08T00:19:59.329Z,25.80
2022-08-08T00:22:29.428Z,25.78
2022-08-08T00:25:00.694Z,25.76
2022-08-08T00:27:34.910Z,25.73
2022-08-08T00:30:07.712Z,25.70
2022-08-08T00:32:52.171Z,25.62
2022-08-08T00:35:56.424Z,25.56
2022-08-08T00:38:51.658Z,25.49
2022-08-08T00:41:55.230Z,25.46
2022-08-08T00:44:27.477Z,25.45
2022-08-08T00:47:14.279Z,25.40
2022-08-08T00:50:34.490Z,25.33
2022-08-08T00:53:04.304Z,25.25
2022-08-08T00:55:52.858Z,25.21
2022-08-08T00:58:43.723Z,25.21
2022-08-08T01:01:38.323Z,25.18
2022-08-08T01:04:30.548Z,25.14
2022-08-08T01:07:34.695Z,25.14
2022-08-08T01:10:34.025Z,25.11
2022-08-08T01:13:43.896Z,25.06
2022-08-08T01:16:27.859Z,25.03
2022-08-08T01:19:42.175Z,25.02
2022-08-08T01:22:36.956Z,25.00
2022-08-08T01:25:16.945Z,24.98
2022-08-08T01:28:00.233Z,24.98
2022-08-08T01:30:59.681Z,24.93
2022-08-08T01:34:00.690Z,24.88
2022-08-08T01:37:06.177Z,24.86
2022-08-08T01:40:14.602Z,24.79
2022-08-08T01:42:53.936Z,24.77
2022-08-08T01:45:30.098Z,24.75
2022-08-08T01:48:16.281Z,24.74
2022-08-08T01:50:52.460Z,24.71
2022-08-08T01:55:14.951Z,24.64
2022-08-08T01:57:07.354Z,24.63
2022-08-08T02:00:02.152Z,24.61
2022-08-08T02:02:50.703Z,24.59
2022-08-08T02:05:59.404Z,24.55
2022-08-08T02:08:34.880Z,24.51
2022-08-08T02:11:23.752Z,24.47
2022-08-08T02:14:05.467Z,24.44
2022-08-08T02:16:35.353Z,24.43
2022-08-08T02:19:50.530Z,24.42
2022-08-08T02:22:31.889Z,24.41
2022-08-08T02:25:00.975Z,24.40
2022-08-08T02:28:04.920Z,24.38
2022-08-08T02:30:58.201Z,24.35
2022-08-08T02:34:08.580Z,24.31
2022-08-08T02:36:43.073Z,24.32
2022-08-08T02:39:40.321Z,24.27
2022-08-08T02:42:14.688Z,24.21
2022-08-08T02:44:57.298Z,24.17
2022-08-08T02:47:51.920Z,24.13
2022-08-08T02:50:40.727Z,24.10
2022-08-08T02:53:32.149Z,24.07
2022-08-08T02:56:27.360Z,24.03
2022-08-08T02:59:58.455Z,24.00
2022-08-08T03:03:08.471Z,23.97
2022-08-08T03:05:59.997Z,23.97
2022-08-08T03:08:52.170Z,23.96
2022-08-08T03:12:13.856Z,23.96
2022-08-08T03:16:02.468Z,23.94
2022-08-08T03:18:49.248Z,23.90
2022-08-08T03:21:19.197Z,23.89
2022-08-08T03:24:00.029Z,23.91
2022-08-08T03:26:31.028Z,23.92
2022-08-08T03:29:00.499Z,23.94
2022-08-08T03:32:07.093Z,23.97
2022-08-08T03:34:39.752Z,24.02
2022-08-08T03:37:20.018Z,24.05
2022-08-08T03:40:02.084Z,24.09
2022-08-08T03:42:31.212Z,24.12
2022-08-08T03:44:58.811Z,24.18
2022-08-08T03:47:39.402Z,24.22
2022-08-08T03:50:19.668Z,24.27
2022-08-08T03:52:47.264Z,24.36
2022-08-08T03:55:56.344Z,24.43
2022-08-08T03:58:32.222Z,24.50
2022-08-08T04:01:01.866Z,24.56
2022-08-08T04:03:59.943Z,24.61
2022-08-08T04:06:29.533Z,24.69
2022-08-08T04:08:58.137Z,24.75
2022-08-08T04:11:48.105Z,24.80
2022-08-08T04:14:33.881Z,24.85
2022-08-08T04:17:02.607Z,24.91
2022-08-08T04:19:36.730Z,24.96
2022-08-08T04:22:04.644Z,25.03
2022-08-08T04:24:31.980Z,25.14
2022-08-08T04:26:59.615Z,25.20
2022-08-08T04:29:27.479Z,25.27
2022-08-08T04:32:10.710Z,25.34
2022-08-08T04:34:49.634Z,25.43
2022-08-08T04:37:31.915Z,25.53
2022-08-08T04:40:07.161Z,25.61
2022-08-08T04:42:36.961Z,25.72
2022-08-08T04:45:05.705Z,25.78
2022-08-08T04:47:36.749Z,25.85
2022-08-08T04:50:14.394Z,26.00
2022-08-08T04:53:01.123Z,26.16
2022-08-08T04:55:47.677Z,26.31
2022-08-08T04:58:20.142Z,26.43
2022-08-08T05:00:50.096Z,26.55
2022-08-08T05:04:08.440Z,26.66
2022-08-08T05:06:13.032Z,26.81
2022-08-08T05:08:45.619Z,26.94
2022-08-08T05:11:23.712Z,27.07
2022-08-08T05:13:57.872Z,27.18
2022-08-08T05:16:52.552Z,27.35
2022-08-08T05:20:11.095Z,27.49
2022-08-08T05:22:02.136Z,27.64
2022-08-08T05:24:30.872Z,27.78
2022-08-08T05:26:58.363Z,27.93
2022-08-08T05:29:27.080Z,28.09
2022-08-08T05:32:03.689Z,28.27
2022-08-08T05:34:46.735Z,28.43
2022-08-08T05:37:19.509Z,28.58
2022-08-08T05:39:49.879Z,28.75
2022-08-08T05:42:19.369Z,28.91
2022-08-08T05:44:51.617Z,29.03
2022-08-08T05:47:21.507Z,29.18
2022-08-08T05:49:55.915Z,29.38
2022-08-08T05:52:31.706Z,29.54
2022-08-08T05:55:14.105Z,29.70
2022-08-08T05:58:05.626Z,29.93
2022-08-08T06:00:34.054Z,30.17
2022-08-08T06:03:17.535Z,30.36
2022-08-08T06:05:59.568Z,30.54
2022-08-08T06:08:38.252Z,30.67
2022-08-08T06:11:05.606Z,30.80
2022-08-08T06:13:36.181Z,30.97
2022-08-08T06:16:14.862Z,31.11
2022-08-08T06:18:42.893Z,31.30
2022-08-08T06:21:28.601Z,31.56
2022-08-08T06:24:05.183Z,31.85
2022-08-08T06:26:50.324Z,32.47
2022-08-08T06:30:00.166Z,32.31
2022-08-08T06:32:18.484Z,32.44
2022-08-08T06:34:52.520Z,32.67
2022-08-08T06:37:25.617Z,32.88
2022-08-08T06:39:56.554Z,33.15
2022-08-08T06:42:26.353Z,33.40
2022-08-08T06:44:55.892Z,33.62
2022-08-08T06:47:23.556Z,33.81
2022-08-08T06:50:00.857Z,34.00
2022-08-08T06:52:32.296Z,34.16
2022-08-08T06:55:01.186Z,34.38
2022-08-08T06:57:29.490Z,34.57
2022-08-08T07:00:17.398Z,34.81
2022-08-08T07:02:59.157Z,35.06
2022-08-08T07:05:29.873Z,35.25
2022-08-08T07:08:12.446Z,35.47
2022-08-08T07:10:49.080Z,35.70
2022-08-08T07:13:18.296Z,35.88
2022-08-08T07:16:11.858Z,36.07
2022-08-08T07:18:49.270Z,36.19
2022-08-08T07:21:20.372Z,36.38
2022-08-08T07:24:02.772Z,36.50
2022-08-08T07:26:35.496Z,36.67
2022-08-08T07:29:05.981Z,36.76
2022-08-08T07:31:36.597Z,36.91
2022-08-08T07:34:09.309Z,37.17
2022-08-08T07:36:47.992Z,37.42
2022-08-08T07:39:29.844Z,37.71
2022-08-08T07:42:12.500Z,37.97
2022-08-08T07:44:43.676Z,38.08
2022-08-08T07:47:10.891Z,38.27
2022-08-08T07:49:39.994Z,38.40
2022-08-08T07:52:19.677Z,38.51
2022-08-08T07:54:50.461Z,38.65
2022-08-08T07:57:48.734Z,38.81
2022-08-08T08:00:17.141Z,38.96
2022-08-08T08:02:52.774Z,39.11
2022-08-08T08:05:32.883Z,39.32
2022-08-08T08:08:07.805Z,39.48
2022-08-08T08:10:36.076Z,39.69
2022-08-08T08:13:25.945Z,39.88
2022-08-08T08:16:19.525Z,40.20
2022-08-08T08:18:55.752Z,40.52
2022-08-08T08:21:44.360Z,40.69
2022-08-08T08:24:13.826Z,40.87
2022-08-08T08:26:52.472Z,41.05
2022-08-08T08:29:20.214Z,41.14
2022-08-08T08:31:57.690Z,41.12
2022-08-08T08:34:32.300Z,41.13
2022-08-08T08:37:07.476Z,41.20
2022-08-08T08:39:59.234Z,41.37
2022-08-08T08:42:35.105Z,41.61
2022-08-08T08:45:21.771Z,41.75
2022-08-08T08:47:54.689Z,41.81
2022-08-08T08:50:32.471Z,41.95
2022-08-08T08:53:04.510Z,42.07
2022-08-08T08:55:39.985Z,42.14
2022-08-08T08:58:08.665Z,42.29
2022-08-08T09:01:04.843Z,42.52
2022-08-08T09:03:31.397Z,42.77
2022-08-08T09:06:33.319Z,43.05
2022-08-08T09:09:07.344Z,43.25
2022-08-08T09:11:47.688Z,43.52
2022-08-08T09:14:29.582Z,43.74
2022-08-08T09:16:57.346Z,43.99
2022-08-08T09:22:02.947Z,44.10
2022-08-08T09:22:12.384Z,44.17
2022-08-08T09:24:46.456Z,44.10
2022-08-08T09:27:20.353Z,44.04
2022-08-08T09:30:10.331Z,44.23
2022-08-08T09:33:11.935Z,44.48
2022-08-08T09:35:49.198Z,44.65
2022-08-08T09:38:52.835Z,44.79
2022-08-08T09:41:33.830Z,44.97
2022-08-08T09:44:34.020Z,45.09
2022-08-08T09:47:25.859Z,45.21
2022-08-08T09:49:53.313Z,45.28
2022-08-08T09:52:58.288Z,45.30
2022-08-08T09:55:12.851Z,45.43
2022-08-08T09:57:55.680Z,45.58
2022-08-08T10:00:49.881Z,45.77
2022-08-08T10:03:14.405Z,45.87
2022-08-08T10:05:47.294Z,45.88
2022-08-08T10:08:16.905Z,45.90
2022-08-08T10:10:50.920Z,45.94
2022-08-08T10:13:32.300Z,45.94
2022-08-08T10:16:03.517Z,45.94
2022-08-08T10:18:36.442Z,45.95
2022-08-08T10:21:26.211Z,45.88
2022-08-08T10:24:03.412Z,45.78
2022-08-08T10:26:57.335Z,45.72
2022-08-08T10:29:57.007Z,45.71
2022-08-08T10:32:38.968Z,45.72
2022-08-08T10:36:02.013Z,45.77
2022-08-08T10:38:08.614Z,45.82
2022-08-08T10:40:37.856Z,45.93
2022-08-08T10:43:07.227Z,46.08
2022-08-08T10:45:55.719Z,46.20
2022-08-08T10:48:38.882Z,46.34
2022-08-08T10:51:26.139Z,46.55
2022-08-08T10:53:57.084Z,46.60
2022-08-08T10:56:34.471Z,46.42
2022-08-08T10:59:08.196Z,46.29
2022-08-08T11:01:39.245Z,46.25
2022-08-08T11:04:12.040Z,46.25
2022-08-08T11:06:41.858Z,46.20
2022-08-08T11:09:21.237Z,46.18
2022-08-08T11:12:04.569Z,46.19
2022-08-08T11:14:58.253Z,46.25
2022-08-08T11:18:00.663Z,46.33
2022-08-08T11:20:27.632Z,46.35
2022-08-08T11:23:05.233Z,46.27
2022-08-08T11:25:52.124Z,46.13
2022-08-08T11:28:30.450Z,46.09
2022-08-08T11:31:00.981Z,46.20
2022-08-08T11:33:51.155Z,46.09
2022-08-08T11:36:20.434Z,45.92
2022-08-08T11:38:54.603Z,45.94
2022-08-08T11:41:28.094Z,46.08
2022-08-08T11:44:02.231Z,46.30
2022-08-08T11:46:32.627Z,46.55
2022-08-08T11:49:14.237Z,46.71
2022-08-08T11:51:50.455Z,46.89
2022-08-08T11:54:38.129Z,47.01
2022-08-08T11:57:18.368Z,47.07
2022-08-08T12:00:01.562Z,47.10
2022-08-08T12:02:47.879Z,47.14
2022-08-08T12:05:16.540Z,47.15
2022-08-08T12:07:54.062Z,47.16
2022-08-08T12:10:25.492Z,47.20
2022-08-08T12:13:04.013Z,47.21
2022-08-08T12:15:50.407Z,47.16
2022-08-08T12:18:26.146Z,47.17
2022-08-08T12:20:55.249Z,47.00
2022-08-08T12:23:43.841Z,46.81
2022-08-08T12:26:27.819Z,46.77
2022-08-08T12:29:25.960Z,46.57
2022-08-08T12:32:13.343Z,46.40
2022-08-08T12:34:50.557Z,46.50
2022-08-08T12:37:22.061Z,46.62
2022-08-08T12:40:00.286Z,46.63
2022-08-08T12:42:33.643Z,46.70
2022-08-08T12:45:54.930Z,46.70
2022-08-08T12:48:04.512Z,46.62
2022-08-08T12:50:42.180Z,46.61
2022-08-08T12:53:37.739Z,46.56
2022-08-08T12:56:19.357Z,46.47
2022-08-08T12:58:54.063Z,46.45
2022-08-08T13:01:37.034Z,46.48
2022-08-08T13:04:19.135Z,46.43
2022-08-08T13:07:00.519Z,46.36
2022-08-08T13:09:33.200Z,46.17
2022-08-08T13:12:24.759Z,46.13
2022-08-08T13:14:53.736Z,45.90
2022-08-08T13:18:09.485Z,45.63
2022-08-08T13:20:19.353Z,45.62
2022-08-08T13:22:46.294Z,45.54
2022-08-08T13:25:22.197Z,45.41
2022-08-08T13:27:54.553Z,45.34
2022-08-08T13:30:26.125Z,45.37
2022-08-08T13:32:57.649Z,45.29
2022-08-08T13:35:38.295Z,45.24
2022-08-08T13:38:13.322Z,45.27
2022-08-08T13:40:44.618Z,45.27
2022-08-08T13:43:16.391Z,45.19
2022-08-08T13:45:47.459Z,45.00
2022-08-08T13:48:25.400Z,44.73
2022-08-08T13:51:25.156Z,44.41
2022-08-08T13:53:53.271Z,44.10
2022-08-08T13:56:44.885Z,43.87
2022-08-08T13:59:47.994Z,43.82
2022-08-08T14:02:31.016Z,43.83
2022-08-08T14:05:09.318Z,43.98
2022-08-08T14:07:49.784Z,44.12
2022-08-08T14:10:33.240Z,44.13
2022-08-08T14:13:27.575Z,44.01
2022-08-08T14:16:03.914Z,43.72
2022-08-08T14:18:36.216Z,43.41
2022-08-08T14:21:12.533Z,43.18
2022-08-08T14:24:06.651Z,42.98
2022-08-08T14:26:46.027Z,42.74
2022-08-08T14:29:28.349Z,42.47
2022-08-08T14:32:08.973Z,42.18
2022-08-08T14:34:43.270Z,41.96
2022-08-08T14:37:13.693Z,41.74
2022-08-08T14:40:05.221Z,41.58
2022-08-08T14:42:55.440Z,41.47
2022-08-08T14:45:28.975Z,41.38
2022-08-08T14:48:01.799Z,41.33
2022-08-08T14:50:39.218Z,41.41
2022-08-08T14:53:13.295Z,41.53
2022-08-08T14:55:42.759Z,41.59
2022-08-08T14:58:11.669Z,41.60
2022-08-08T15:00:44.230Z,41.52
2022-08-08T15:03:14.824Z,41.41
2022-08-08T15:05:53.175Z,41.23
2022-08-08T15:08:33.416Z,41.08
2022-08-08T15:11:04.723Z,41.05
2022-08-08T15:13:35.016Z,40.90
2022-08-08T15:16:12.014Z,40.71
2022-08-08T15:18:44.218Z,40.47
2022-08-08T15:21:18.319Z,40.29
2022-08-08T15:23:50.922Z,40.13
2022-08-08T15:26:20.116Z,40.05
2022-08-08T15:28:53.387Z,40.00
2022-08-08T15:31:25.959Z,39.78
2022-08-08T15:34:28.746Z,39.59
2022-08-08T15:36:58.064Z,39.29
2022-08-08T15:39:26.191Z,39.10
2022-08-08T15:42:03.125Z,39.00
2022-08-08T15:44:30.373Z,38.84
2022-08-08T15:46:58.549Z,38.66
2022-08-08T15:49:27.621Z,38.49
2022-08-08T15:51:57.162Z,38.35
2022-08-08T15:54:38.807Z,38.22
2022-08-08T15:57:08.882Z,38.08
2022-08-08T16:00:06.392Z,37.92
2022-08-08T16:02:30.806Z,37.76
2022-08-08T16:05:00.137Z,37.59
2022-08-08T16:07:51.464Z,37.46
2022-08-08T16:13:09.814Z,37.38
2022-08-08T16:13:27.674Z,37.26
2022-08-08T16:15:57.640Z,37.15
2022-08-08T16:18:27.282Z,37.05
2022-08-08T16:21:00.302Z,36.88
2022-08-08T16:23:32.561Z,36.75
2022-08-08T16:26:04.993Z,36.60
2022-08-08T16:28:41.334Z,36.45
2022-08-08T16:31:09.403Z,36.29
2022-08-08T16:33:38.536Z,36.17
2022-08-08T16:36:08.751Z,36.07
2022-08-08T16:38:44.498Z,35.96
2022-08-08T16:41:20.689Z,35.83
2022-08-08T16:43:50.907Z,35.71
2022-08-08T16:46:39.195Z,35.61
2022-08-08T16:49:10.639Z,35.48
2022-08-08T16:55:05.351Z,35.24
2022-08-08T16:55:18.388Z,35.36
2022-08-08T16:57:23.389Z,35.13
2022-08-08T17:00:08.969Z,35.02
2022-08-08T17:02:39.181Z,34.90
2022-08-08T17:05:13.779Z,34.76
2022-08-08T17:07:46.828Z,34.65
2022-08-08T17:10:17.022Z,34.55
2022-08-08T17:12:46.894Z,34.42
2022-08-08T17:15:21.288Z,34.32
2022-08-08T17:18:02.702Z,34.24
2022-08-08T17:20:39.548Z,34.15
2022-08-08T17:23:16.419Z,34.06
2022-08-08T17:25:52.539Z,33.94
2022-08-08T17:28:28.822Z,33.84
2022-08-08T17:31:43.189Z,33.74
2022-08-08T17:34:35.946Z,33.63
2022-08-08T17:36:55.049Z,33.53
2022-08-08T17:40:04.977Z,33.47
2022-08-08T17:42:19.196Z,33.38
2022-08-08T17:44:49.176Z,33.29
2022-08-08T17:47:27.257Z,33.22
2022-08-08T17:50:01.588Z,33.14
2022-08-08T17:52:33.280Z,33.05
2022-08-08T17:55:05.406Z,32.97
2022-08-08T17:57:36.557Z,32.87
2022-08-08T18:00:13.421Z,32.79
2022-08-08T18:02:52.640Z,32.71
2022-08-08T18:05:48.470Z,32.62
2022-08-08T18:08:24.455Z,32.55
2022-08-08T18:11:08.421Z,32.48
2022-08-08T18:13:42.074Z,32.41
2022-08-08T18:16:10.222Z,32.29
2022-08-08T18:18:42.963Z,32.28
2022-08-08T18:21:35.593Z,32.23
2022-08-08T18:24:10.493Z,32.16
2022-08-08T18:26:46.596Z,32.07
2022-08-08T18:29:25.935Z,31.98
2022-08-08T18:32:03.681Z,31.89
2022-08-08T18:34:33.009Z,31.82
2022-08-08T18:37:04.686Z,31.75
2022-08-08T18:39:32.163Z,31.70
2022-08-08T18:41:59.860Z,31.62
2022-08-08T18:44:34.703Z,31.56
2022-08-08T18:47:04.313Z,31.50
2022-08-08T18:49:57.296Z,31.45
2022-08-08T18:52:22.261Z,31.41
2022-08-08T18:55:00.574Z,31.37
2022-08-08T18:57:41.891Z,31.34
2022-08-08T19:00:15.648Z,31.30
2022-08-08T19:02:54.714Z,31.25
2022-08-08T19:05:38.555Z,31.20
2022-08-08T19:08:25.226Z,31.16
2022-08-08T19:10:59.659Z,31.10
2022-08-08T19:13:52.972Z,31.04
2022-08-08T19:16:19.565Z,30.99
2022-08-08T19:18:52.908Z,30.96
2022-08-08T19:21:30.472Z,30.92
2022-08-08T19:23:59.101Z,30.89
2022-08-08T19:26:30.897Z,30.87
2022-08-08T19:29:00.322Z,30.83
2022-08-08T19:31:31.351Z,30.80
2022-08-08T19:34:35.696Z,30.79
2022-08-08T19:36:58.614Z,30.75
2022-08-08T19:39:35.183Z,30.70
2022-08-08T19:42:06.880Z,30.69
2022-08-08T19:44:45.376Z,30.68
2022-08-08T19:47:14.627Z,30.64
2022-08-08T19:49:43.546Z,30.63
2022-08-08T19:52:35.156Z,30.55
2022-08-08T19:55:11.306Z,30.48
2022-08-08T19:57:44.794Z,30.43
2022-08-08T20:00:29.028Z,30.40
2022-08-08T20:03:14.753Z,30.36
2022-08-08T20:06:15.393Z,30.28
2022-08-08T20:08:36.599Z,30.27
2022-08-08T20:11:03.647Z,30.25
2022-08-08T20:14:33.397Z,30.23
2022-08-08T20:16:21.234Z,30.18
2022-08-08T20:18:56.960Z,30.14
2022-08-08T20:21:25.566Z,30.11
2022-08-08T20:23:57.710Z,30.10
2022-08-08T20:26:30.102Z,30.08
2022-08-08T20:29:02.576Z,30.05
2022-08-08T20:32:02.677Z,29.99
2022-08-08T20:34:28.794Z,29.90
2022-08-08T20:37:03.176Z,29.84
2022-08-08T20:39:39.102Z,29.80
2022-08-08T20:42:28.657Z,29.77
2022-08-08T20:44:56.436Z,29.75
2022-08-08T20:47:24.022Z,29.72
2022-08-08T20:49:55.837Z,29.71
2022-08-08T20:52:25.902Z,29.72
2022-08-08T20:54:52.914Z,29.72
2022-08-08T20:57:20.964Z,29.73
2022-08-08T20:59:48.886Z,29.74
2022-08-08T21:02:25.357Z,29.74
2022-08-08T21:05:00.566Z,29.74
2022-08-08T21:07:47.101Z,29.72
2022-08-08T21:10:16.773Z,29.72
2022-08-08T21:12:46.319Z,29.67
2022-08-08T21:16:05.233Z,29.58
2022-08-08T21:18:08.025Z,29.55
2022-08-08T21:20:35.069Z,29.50
2022-08-08T21:23:09.008Z,29.48
2022-08-08T21:25:36.825Z,29.45
2022-08-08T21:28:15.581Z,29.42
2022-08-08T21:30:49.762Z,29.37
2022-08-08T21:33:21.213Z,29.34
2022-08-08T21:36:18.455Z,29.39
2022-08-08T21:38:35.398Z,29.37
2022-08-08T21:41:02.272Z,29.34
2022-08-08T21:43:33.607Z,29.31
2022-08-08T21:48:07.243Z,29.25
2022-08-08T21:48:54.155Z,29.23
2022-08-08T21:54:17.893Z,29.23
2022-08-08T21:54:33.836Z,29.20
2022-08-08T21:56:59.411Z,29.16
2022-08-08T21:59:43.780Z,29.15
2022-08-08T22:02:16.025Z,29.11
2022-08-08T22:04:46.325Z,29.07
2022-08-08T22:07:13.473Z,29.04
2022-08-08T22:09:41.012Z,29.00
2022-08-08T22:12:16.698Z,28.96
2022-08-08T22:14:49.872Z,28.91
2022-08-08T22:17:19.151Z,28.80
2022-08-08T22:20:11.984Z,28.78
2022-08-08T22:22:37.892Z,28.80
2022-08-08T22:25:12.198Z,28.79
2022-08-08T22:28:02.829Z,28.78
2022-08-08T22:30:40.963Z,28.75
2022-08-08T22:34:10.434Z,28.73
2022-08-08T22:36:04.510Z,28.70
2022-08-08T22:38:48.677Z,28.63
2022-08-08T22:41:21.525Z,28.57
2022-08-08T22:44:01.903Z,28.54
2022-08-08T22:46:33.149Z,28.43
2022-08-08T22:49:00.750Z,28.36
2022-08-08T22:51:28.967Z,28.33
2022-08-08T22:54:32.762Z,28.31
2022-08-08T22:56:47.486Z,28.27
2022-08-08T22:59:18.559Z,28.24
2022-08-08T23:02:02.291Z,28.22
2022-08-08T23:04:32.314Z,28.27
2022-08-08T23:07:03.021Z,28.27
2022-08-08T23:09:39.485Z,28.21
2022-08-08T23:12:39.813Z,28.11
2022-08-08T23:15:10.918Z,28.07
2022-08-08T23:17:58.425Z,28.03
2022-08-08T23:20:27.243Z,27.98
2022-08-08T23:22:55.529Z,27.94
2022-08-08T23:25:23.704Z,27.89
2022-08-08T23:27:54.275Z,27.85
2022-08-08T23:30:23.694Z,27.79
2022-08-08T23:32:50.884Z,27.74
2022-08-08T23:35:18.660Z,27.69
2022-08-08T23:38:01.784Z,27.65
2022-08-08T23:40:31.484Z,27.60
2022-08-08T23:42:58.933Z,27.55
2022-08-08T23:48:59.928Z,27.51
2022-08-08T23:49:02.871Z,27.48
2022-08-08T23:51:12.924Z,27.44
2022-08-08T23:54:05.589Z,27.39
2022-08-08T23:56:40.796Z,27.33
2022-08-08T23:59:17.265Z,27.28
